CSUN Campus Station - National Weather Service Data Page - PST Time




                Date      RH     Dew  Seasonal     Current   Max Air   Min Air    Wind    Wind    Wind    Gust     Bar    Rain
                Time       %   Point      Rain    Air Temp     Since     Since   Speed    Gust     Dir     Dir   Press   Total
                               Deg F    Inches       Deg F  Midnight  Midnight     MPH     MPH                      mb  Inches
------------------------------------------------------------------------------------------------------------------------------
    09/21/2016 00:00      65    59.4      0.00        71.5      89.8      68.0       0       0       0     312    1012    0.00
    09/21/2016 00:10      67    59.4      0.00        71.2      71.6      71.0       0       0       0     310    1012    0.00
    09/21/2016 00:20      67    59.6      0.00        70.9      71.6      70.7       0       0     294     294    1012    0.00
    09/21/2016 00:30      69    59.7      0.00        70.9      71.6      70.5       0       0       0     295    1012    0.00
    09/21/2016 00:40      70    59.6      0.00        70.4      71.6      70.1       0       1     264     266    1012    0.00
    09/21/2016 00:50      70    60.1      0.00        70.3      71.6      70.0       0       0     281     280    1012    0.00
    09/21/2016 01:00      70    59.8      0.00        70.1      71.6      69.7       0       0       0     330    1012    0.00
    09/21/2016 01:10      72    59.8      0.00        69.8      71.6      69.6       0       0       0     327    1012    0.00
    09/21/2016 01:20      71    60.2      0.00        69.7      71.6      69.6       0       0       0     320    1012    0.00
    09/21/2016 01:30      73    60.2      0.00        69.7      71.6      69.5       0       0       0     299    1012    0.00
    09/21/2016 01:40      72    60.5      0.00        69.8      71.6      69.5       0       0       0     290    1012    0.00
    09/21/2016 01:50      73    60.6      0.00        69.7      71.6      69.5       0       0       0     314    1012    0.00
    09/21/2016 02:00      73    60.5      0.00        69.7      71.6      69.5       0       0       0     308    1012    0.00
    09/21/2016 02:10      73    60.5      0.00        69.6      71.6      69.4       0       0       0     308    1012    0.00
    09/21/2016 02:20      73    60.6      0.00        69.5      71.6      69.1       0       0       0     312    1012    0.00
    09/21/2016 02:30      75    60.4      0.00        69.1      71.6      68.9       0       1     287     286    1012    0.00
    09/21/2016 02:40      75    60.6      0.00        69.0      71.6      68.8       0       2     306     296    1011    0.00
    09/21/2016 02:50      74    60.8      0.00        69.0      71.6      68.8       0       1     311     338    1011    0.00
    09/21/2016 03:00      75    60.6      0.00        69.1      71.6      68.8       0       0       0     294    1011    0.00
    09/21/2016 03:10      75    60.5      0.00        68.8      71.6      68.5       0       0     247     247    1011    0.00
    09/21/2016 03:20      75    60.5      0.00        68.6      71.6      68.4       0       0     277     286    1011    0.00
    09/21/2016 03:30      76    60.5      0.00        68.5      71.6      68.2       0       2     256     257    1011    0.00
    09/21/2016 03:40      76    60.4      0.00        68.2      71.6      68.0       0       0       0     264    1011    0.00
    09/21/2016 03:50      77    60.5      0.00        68.1      71.6      67.9       0       0     293     299    1011    0.00
    09/21/2016 04:00      76    60.6      0.00        68.2      71.6      67.9       0       0     290     295    1011    0.00
    09/21/2016 04:10      77    60.4      0.00        68.0      71.6      67.9       0       0     297     301    1011    0.00
    09/21/2016 04:20      78    60.6      0.00        68.0      71.6      67.7       0       1     294     302    1011    0.00
    09/21/2016 04:30      77    60.6      0.00        68.0      71.6      67.7       0       1     263     265    1011    0.00
    09/21/2016 04:40      77    60.5      0.00        67.9      71.6      67.7       0       1     291     303    1011    0.00
    09/21/2016 04:50      77    60.4      0.00        67.8      71.6      67.6       0       2     274     250    1011    0.00
    09/21/2016 05:00      77    60.4      0.00        67.8      71.6      67.6       0       2     268     249    1011    0.00
    09/21/2016 05:10      77    60.5      0.00        67.9      71.6      67.6       0       1     304     306    1011    0.00
    09/21/2016 05:20      77    60.2      0.00        67.8      71.6      67.6       0       0       0     321    1011    0.00
    09/21/2016 05:30      76    60.0      0.00        67.6      71.6      67.4       0       1     280     285    1011    0.00
    09/21/2016 05:40      77    59.9      0.00        67.4      71.6      67.1       0       2     237     288    1011    0.00
    09/21/2016 05:50      78    59.9      0.00        67.1      71.6      67.0       0       1     269     295    1011    0.00
    09/21/2016 06:00      78    60.1      0.00        67.2      71.6      67.0       0       2     224     213    1011    0.00
    09/21/2016 06:10      77    60.5      0.00        67.6      71.6      67.0       0       1     284     293    1011    0.00
    09/21/2016 06:20      76    60.6      0.00        68.3      71.6      67.0       0       1     299     299    1011    0.00
    09/21/2016 06:30      75    60.7      0.00        68.9      71.6      67.0       0       1     304     287    1011    0.00
    09/21/2016 06:40      70    61.2      0.00        70.3      71.6      67.0       0       2     146     145    1011    0.00
    09/21/2016 06:50      68    61.0      0.00        72.1      72.4      67.0       2       4      85      68    1011    0.00
    09/21/2016 07:00      66    61.0      0.00        72.5      73.0      67.0       2       4      71      69    1012    0.00
    09/21/2016 07:10      64    61.1      0.00        73.5      74.2      67.0       2       3      55      44    1012    0.00
    09/21/2016 07:20      64    61.3      0.00        74.3      74.7      67.0       2       4      63      54    1012    0.00
    09/21/2016 07:30      62    61.3      0.00        75.3      75.8      67.0       3       4      58      50    1012    0.00
    09/21/2016 07:40      60    61.3      0.00        75.4      75.9      67.0       2       4      54      54    1012    0.00
    09/21/2016 07:50      60    61.2      0.00        76.2      76.5      67.0       2       5      68      75    1012    0.00
    09/21/2016 08:00      57    61.0      0.00        77.0      77.6      67.0       1       4      49      36    1012    0.00
    09/21/2016 08:10      57    61.0      0.00        77.5      77.8      67.0       3       6      80      96    1012    0.00
    09/21/2016 08:20      56    61.0      0.00        77.6      78.3      67.0       2       6     104      88    1012    0.00
    09/21/2016 08:30      53    61.0      0.00        78.9      79.6      67.0       1       5      91      77    1012    0.00
    09/21/2016 08:40      53    60.7      0.00        79.4      79.8      67.0       2       5      85      91    1012    0.00
    09/21/2016 08:50      52    60.5      0.00        79.5      80.1      67.0       1       4     122      77    1012    0.00
    09/21/2016 09:00      49    60.8      0.00        80.2      81.4      67.0       0       2      66      83    1012    0.00
    09/21/2016 09:10      52    60.6      0.00        80.2      81.4      67.0       2       4     140     196    1012    0.00
    09/21/2016 09:20      51    61.0      0.00        80.1      81.4      67.0       3       5     169     190    1012    0.00
    09/21/2016 09:30      50    60.5      0.00        80.5      81.4      67.0       2       5      68     167    1012    0.00
    09/21/2016 09:40      49    61.1      0.00        81.2      81.7      67.0       4       7     171     181    1012    0.00
    09/21/2016 09:50      50    60.5      0.00        81.4      81.8      67.0       2       8     176     192    1012    0.00
    09/21/2016 10:00      47    60.4      0.00        81.5      82.5      67.0       3       8     191     183    1012    0.00
    09/21/2016 10:10      46    60.0      0.00        82.5      82.8      67.0       2       4     262     281    1012    0.00
    09/21/2016 10:20      46    60.3      0.00        83.1      84.1      67.0       2       5     278     191    1012    0.00
    09/21/2016 10:30      44    60.2      0.00        83.8      84.3      67.0       3       8     225     178    1012    0.00
    09/21/2016 10:40      46    59.9      0.00        83.4      84.3      67.0       3       8     197     149    1011    0.00
    09/21/2016 10:50      45    60.0      0.00        83.5      85.0      67.0       2       7     131     145    1011    0.00
    09/21/2016 11:00      44    60.0      0.00        84.6      85.3      67.0       3       8     219     191    1011    0.00
    09/21/2016 11:10      44    60.1      0.00        84.9      85.9      67.0       2       6     202     184    1011    0.00
    09/21/2016 11:20      45    60.1      0.00        83.9      85.9      67.0       2       6     186     136    1011    0.00
    09/21/2016 11:30      42    60.6      0.00        85.5      86.7      67.0       5      10     157     133    1011    0.00
    09/21/2016 11:40      42    59.8      0.00        86.4      86.9      67.0       4      11     100     144    1011    0.00
    09/21/2016 11:50      44    60.0      0.00        84.9      86.9      67.0       3       9      69      85    1011    0.00
    09/21/2016 12:00      42    61.0      0.00        85.9      86.9      67.0       5      10     132     141    1010    0.00
    09/21/2016 12:10      43    60.7      0.00        85.8      86.9      67.0       4       9     113     171    1010    0.00
    09/21/2016 12:20      44    60.5      0.00        85.2      86.9      67.0       5      10      96     114    1010    0.00
    09/21/2016 12:30      43    60.5      0.00        84.9      86.9      67.0       5      11      88      37    1010    0.00
    09/21/2016 12:40      44    60.6      0.00        85.1      86.9      67.0       3       7     115     165    1010    0.00
    09/21/2016 12:50      44    60.5      0.00        84.9      86.9      67.0       4       8     123     134    1010    0.00
    09/21/2016 13:00      45    60.4      0.00        84.0      86.9      67.0       6      13      87      94    1010    0.00
    09/21/2016 13:10      45    60.5      0.00        83.7      86.9      67.0       4      12      90      82    1010    0.00
    09/21/2016 13:20      45    60.4      0.00        83.9      86.9      67.0       3       6     120     117    1009    0.00
    09/21/2016 13:30      44    60.0      0.00        84.0      86.9      67.0       3       9      79      89    1009    0.00
    09/21/2016 13:40      42    59.9      0.00        84.0      86.9      67.0       3       8     342      58    1009    0.00
    09/21/2016 13:50      41    59.4      0.00        84.9      86.9      67.0       4      11     281     255    1009    0.00
    09/21/2016 14:00      40    59.1      0.00        86.4      86.9      67.0       5      11     256     250    1009    0.00
    09/21/2016 14:10      39    58.5      0.00        86.3      86.9      67.0       5      11     273     245    1009    0.00
    09/21/2016 14:20      37    58.3      0.00        86.5      87.4      67.0       4       8     249     264    1009    0.00
    09/21/2016 14:30      37    57.4      0.00        86.6      87.4      67.0       5      11     261     286    1009    0.00
    09/21/2016 14:40      36    56.7      0.00        86.7      87.4      67.0       2       8     289     252    1009    0.00
    09/21/2016 14:50      33    56.3      0.00        87.7      88.1      67.0       4      10     248     255    1009    0.00
    09/21/2016 15:00      32    55.0      0.00        87.7      88.1      67.0       3       8     245     267    1009    0.00
    09/21/2016 15:10      32    54.8      0.00        87.7      88.2      67.0       5       9     183     170    1009    0.00
    09/21/2016 15:20      36    56.9      0.00        87.8      88.4      67.0       2       6     169     164    1009    0.00
    09/21/2016 15:30      37    56.4      0.00        86.9      88.4      67.0       2       5      28      51    1009    0.00
    09/21/2016 15:40      38    56.5      0.00        85.7      88.4      67.0       3      11     293     254    1009    0.00
    09/21/2016 15:50      39    56.6      0.00        84.7      88.4      67.0       5      13     284     237    1009    0.00
    09/21/2016 16:00      40    56.6      0.00        83.8      88.4      67.0       5      10     275     239    1009    0.00
    09/21/2016 16:10      40    56.5      0.00        83.4      88.4      67.0       4      10     290     243    1009    0.00
    09/21/2016 16:20      41    56.5      0.00        82.9      88.4      67.0       4      13     283     241    1009    0.00
    09/21/2016 16:30      41    56.3      0.00        82.4      88.4      67.0       4       8     288     272    1009    0.00
    09/21/2016 16:40      42    56.0      0.00        81.7      88.4      67.0       5      10     276     263    1009    0.00
    09/21/2016 16:50      41    55.6      0.00        81.2      88.4      67.0       4       9     281     275    1009    0.00
    09/21/2016 17:00      42    55.1      0.00        80.7      88.4      67.0       4      10     280     239    1009    0.00
    09/21/2016 17:10      41    55.0      0.00        80.3      88.4      67.0       4       9     273     242    1009    0.00
    09/21/2016 17:20      39    53.3      0.00        79.5      88.4      67.0       5      13     288     258    1009    0.00
    09/21/2016 17:30      39    52.0      0.00        79.0      88.4      67.0       5       9     279     265    1009    0.00
    09/21/2016 17:40      38    51.4      0.00        78.5      88.4      67.0       4      10     280     253    1009    0.00
    09/21/2016 17:50      40    50.7      0.00        78.1      88.4      67.0       4       7     286     270    1009    0.00
    09/21/2016 18:00      42    52.0      0.00        77.7      88.4      67.0       4       6     282     304    1009    0.00
    09/21/2016 18:10      43    52.9      0.00        77.3      88.4      67.0       3       5     282     297    1009    0.00
    09/21/2016 18:20      43    53.0      0.00        76.8      88.4      67.0       2       4     282     287    1009    0.00
    09/21/2016 18:30      42    51.9      0.00        76.5      88.4      67.0       2       4     284     255    1009    0.00
    09/21/2016 18:40      40    51.0      0.00        76.2      88.4      67.0       1       4     280     256    1009    0.00
    09/21/2016 18:50      40    49.8      0.00        76.1      88.4      67.0       2       4     282     307    1009    0.00
    09/21/2016 19:00      40    49.6      0.00        75.7      88.4      67.0       0       4     284     280    1009    0.00
    09/21/2016 19:10      41    49.8      0.00        75.4      88.4      67.0       0       0     312     312    1009    0.00
    09/21/2016 19:20      42    50.0      0.00        74.9      88.4      67.0       0       1      50      49    1009    0.00
    09/21/2016 19:30      38    49.1      0.00        74.8      88.4      67.0       0       2     307     328    1009    0.00
    09/21/2016 19:40      39    48.1      0.00        74.8      88.4      67.0       0       1     305     323    1009    0.00
    09/21/2016 19:50      38    47.2      0.00        74.4      88.4      67.0       0       0       0     327    1009    0.00
    09/21/2016 20:00      39    47.2      0.00        73.7      88.4      67.0       0       2     131     140    1009    0.00
    09/21/2016 20:10      49    49.9      0.00        73.3      88.4      67.0       0       2      98     111    1009    0.00
    09/21/2016 20:20      56    55.7      0.00        73.6      88.4      67.0       1       4      98      74    1010    0.00
    09/21/2016 20:30      58    57.4      0.00        73.6      88.4      67.0       0       2      92     107    1010    0.00
    09/21/2016 20:40      59    57.8      0.00        73.2      88.4      67.0       3       5      88      85    1010    0.00
    09/21/2016 20:50      61    57.9      0.00        72.6      88.4      67.0       3       7      90      64    1010    0.00
    09/21/2016 21:00      62    58.0      0.00        72.2      88.4      67.0       3       5      88      89    1010    0.00
    09/21/2016 21:10      63    58.1      0.00        71.7      88.4      67.0       3       6      81      64    1010    0.00
    09/21/2016 21:20      64    58.3      0.00        71.4      88.4      67.0       3       7      75     102    1010    0.00
    09/21/2016 21:30      64    58.4      0.00        71.1      88.4      67.0       3       6      76      53    1010    0.00
    09/21/2016 21:40      65    58.3      0.00        70.7      88.4      67.0       4       7      84      82    1010    0.00
    09/21/2016 21:50      65    58.1      0.00        70.5      88.4      67.0       4       6      78      45    1010    0.00
    09/21/2016 22:00      65    57.8      0.00        70.1      88.4      67.0       4       8      75      87    1010    0.00
    09/21/2016 22:10      67    57.7      0.00        69.5      88.4      67.0       5       8      78      82    1010    0.00
    09/21/2016 22:20      67    57.6      0.00        69.0      88.4      67.0       4       7      74      66    1010    0.00
    09/21/2016 22:30      68    57.6      0.00        68.6      88.4      67.0       4       8      77      88    1010    0.00
    09/21/2016 22:40      70    57.6      0.00        68.2      88.4      67.0       3       6      90      97    1010    0.00
    09/21/2016 22:50      70    57.7      0.00        67.7      88.4      67.0       3       7      79      72    1011    0.00
    09/21/2016 23:00      67    56.4      0.00        67.3      88.4      67.0       4       7      74      74    1011    0.00
    09/21/2016 23:10      65    55.5      0.00        67.1      88.4      66.9       2       6      98     110    1011    0.00
    09/21/2016 23:20      64    54.5      0.00        66.9      88.4      66.7       2       4      71      93    1011    0.00
    09/21/2016 23:30      63    54.0      0.00        66.8      88.4      66.7       2       4      65      24    1010    0.00
    09/21/2016 23:40      63    53.7      0.00        66.7      88.4      66.6       3       4      46      34    1010    0.00
    09/21/2016 23:50      64    53.8      0.00        66.8      88.4      66.6       3       5      70      67    1010    0.00
    09/22/2016 00:00      63    54.1      0.00        66.7      88.4      66.4       2       5      67      85    1010    0.00
    09/22/2016 00:10      62    53.5      0.00        66.6      66.7      66.4       2       3      68      68    1010    0.00
    09/22/2016 00:20      64    53.5      0.00        66.5      66.7      66.3       2       4      65      81    1010    0.00
    09/22/2016 00:30      65    54.1      0.00        66.4      66.7      66.2       1       3      52      60    1011    0.00
    09/22/2016 00:40      64    53.7      0.00        66.3      66.7      66.1       2       4      53      53    1011    0.00
    09/22/2016 00:50      64    53.7      0.00        66.3      66.7      66.1       1       3      34      48    1010    0.00
    09/22/2016 01:00      65    53.9      0.00        66.2      66.7      66.0       2       3      48      52    1011    0.00
    09/22/2016 01:10      64    53.9      0.00        66.2      66.7      66.0       2       3      41      49    1011    0.00
    09/22/2016 01:20      63    53.3      0.00        66.2      66.7      66.0       2       3      42      38    1011    0.00
    09/22/2016 01:30      62    52.7      0.00        66.1      66.7      65.9       2       3      48      43    1011    0.00
    09/22/2016 01:40      61    52.1      0.00        66.0      66.7      65.8       2       3      50      62    1011    0.00
    09/22/2016 01:50      62    52.5      0.00        66.0      66.7      65.8       1       2      63      15    1011    0.00
    09/22/2016 02:00      63    52.5      0.00        65.7      66.7      65.3       0       2      44      82    1011    0.00
    09/22/2016 02:10      65    52.6      0.00        65.1      66.7      64.7       0       2      72      93    1011    0.00
    09/22/2016 02:20      63    52.4      0.00        64.8      66.7      64.5       2       3      81      86    1011    0.00
    09/22/2016 02:30      63    52.0      0.00        64.9      66.7      64.5       1       2      78      84    1011    0.00
    09/22/2016 02:40      62    51.6      0.00        64.7      66.7      64.4       1       3      81      82    1011    0.00
    09/22/2016 02:50      62    51.0      0.00        64.5      66.7      64.3       2       3      86      63    1011    0.00
    09/22/2016 03:00      63    50.9      0.00        64.2      66.7      63.9       0       2      94      83    1011    0.00
    09/22/2016 03:10      63    51.0      0.00        63.9      66.7      63.7       1       2      83      73    1011    0.00
    09/22/2016 03:20      64    51.1      0.00        63.8      66.7      63.6       0       2      79      99    1011    0.00
    09/22/2016 03:30      65    51.2      0.00        63.5      66.7      63.0       0       2     300     299    1011    0.00
    09/22/2016 03:40      65    51.4      0.00        63.2      66.7      63.0       0       0      65      78    1011    0.00
    09/22/2016 03:50      66    51.7      0.00        63.3      66.7      63.0       0       2      91      85    1011    0.00
    09/22/2016 04:00      66    51.8      0.00        63.5      66.7      63.0       0       3      98      87    1011    0.00
    09/22/2016 04:10      68    51.9      0.00        63.3      66.7      63.0       0       3     130     130    1011    0.00
    09/22/2016 04:20      71    52.8      0.00        63.1      66.7      62.9       2       4     142     170    1011    0.00
    09/22/2016 04:30      75    54.3      0.00        62.9      66.7      62.8       2       5     144     141    1011    0.00
    09/22/2016 04:40      77    55.3      0.00        62.9      66.7      62.7       1       4     142     138    1011    0.00
    09/22/2016 04:50      78    55.7      0.00        63.0      66.7      62.7       0       2     101     126    1011    0.00
    09/22/2016 05:00      78    56.6      0.00        63.4      66.7      62.7       0       2      83      91    1011    0.00
    09/22/2016 05:10      78    57.0      0.00        63.7      66.7      62.7       0       1      23      34    1011    0.00
    09/22/2016 05:20      78    57.1      0.00        63.9      66.7      62.7       1       3     342     319    1011    0.00
    09/22/2016 05:30      78    57.2      0.00        64.1      66.7      62.7       0       2     296     311    1011    0.00
    09/22/2016 05:40      78    57.3      0.00        64.2      66.7      62.7       0       2     276     297    1011    0.00
    09/22/2016 05:50      78    57.5      0.00        64.3      66.7      62.7       1       3     286     272    1011    0.00
    09/22/2016 06:00      80    57.5      0.00        64.2      66.7      62.7       3       5     248     246    1011    0.00
    09/22/2016 06:10      82    57.9      0.00        63.7      66.7      62.7       1       4     198     177    1012    0.00
    09/22/2016 06:20      83    58.2      0.00        63.5      66.7      62.7       2       4     207     206    1012    0.00
    09/22/2016 06:30      85    58.6      0.00        63.4      66.7      62.7       3       5     184     176    1012    0.00
    09/22/2016 06:40      85    58.6      0.00        63.3      66.7      62.7       3       6     162     150    1011    0.00
    09/22/2016 06:50      85    58.4      0.00        63.0      66.7      62.7       2       4     154     147    1011    0.00
    09/22/2016 07:00      84    58.4      0.00        63.1      66.7      62.7       0       2     209     192    1012    0.00
    09/22/2016 07:10      83    58.5      0.00        63.4      66.7      62.7       2       4     274     253    1012    0.00
    09/22/2016 07:20      82    58.4      0.00        63.8      66.7      62.7       2       5     262     248    1012    0.00
    09/22/2016 07:30      80    58.4      0.00        64.3      66.7      62.7       1       4     264     250    1012    0.00
    09/22/2016 07:40      78    58.1      0.00        64.7      66.7      62.7       2       5     265     243    1012    0.00
    09/22/2016 07:50      76    57.7      0.00        65.0      66.7      62.7       1       4     274     231    1012    0.00
    09/22/2016 08:00      76    57.5      0.00        65.3      66.7      62.7       2       5     274     242    1012    0.00
    09/22/2016 08:10      75    57.4      0.00        65.3      66.7      62.7       3       6     259     250    1012    0.00
    09/22/2016 08:20      74    57.3      0.00        65.8      66.7      62.7       3       6     241     252    1012    0.00
    09/22/2016 08:30      73    57.3      0.00        66.1      66.7      62.7       3       6     202     209    1012    0.00
    09/22/2016 08:40      71    57.0      0.00        66.4      66.8      62.7       3       5     241     227    1012    0.00
    09/22/2016 08:50      68    56.8      0.00        67.1      67.7      62.7       2       6     236     232    1012    0.00
    09/22/2016 09:00      66    56.4      0.00        67.9      68.4      62.7       1       3     248     275    1012    0.00
    09/22/2016 09:10      60    56.2      0.00        69.2      70.5      62.7       2       8     174     161    1012    0.00
    09/22/2016 09:20      58    55.5      0.00        70.4      70.9      62.7       1       6     269     148    1013    0.00
    09/22/2016 09:30      56    55.0      0.00        71.0      71.6      62.7       3       7     206     190    1013    0.00
    09/22/2016 09:40      53    54.5      0.00        71.3      72.3      62.7       3       9     149     147    1013    0.00
    09/22/2016 09:50      52    54.0      0.00        72.1      72.4      62.7       3       7     137     148    1012    0.00
    09/22/2016 10:00      52    53.8      0.00        71.5      72.4      62.7       4       7      73      63    1012    0.00
    09/22/2016 10:10      47    53.6      0.00        73.2      74.6      62.7       5      10     137     149    1012    0.00
    09/22/2016 10:20      46    52.3      0.00        74.8      75.2      62.7       4      10     121     145    1012    0.00
    09/22/2016 10:30      47    52.4      0.00        74.1      75.2      62.7       5      10     115     140    1012    0.00
    09/22/2016 10:40      44    52.5      0.00        75.0      75.4      62.7       4       9     152     145    1012    0.00
    09/22/2016 10:50      45    52.5      0.00        74.8      75.4      62.7       5      11     139     170    1012    0.00
    09/22/2016 11:00      42    51.0      0.00        75.4      75.8      62.7       4       9     146     147    1012    0.00
    09/22/2016 11:10      42    50.6      0.00        76.3      77.0      62.7       6      10     167     152    1012    0.00
    09/22/2016 11:20      45    50.5      0.00        74.1      77.0      62.7       4       8     210     161    1012    0.00
    09/22/2016 11:30      39    50.5      0.00        75.8      77.0      62.7       2       5      77      66    1012    0.00
    09/22/2016 11:40      39    49.8      0.00        76.5      77.0      62.7       3       9     136      94    1011    0.00
    09/22/2016 11:50      41    49.6      0.00        76.1      77.0      62.7       4       9      79      88    1011    0.00
    09/22/2016 12:00      38    50.2      0.00        76.9      77.9      62.7       4       9     170     152    1011    0.00
    09/22/2016 12:10      36    49.4      0.00        76.6      77.9      62.7       5      12     135     192    1011    0.00
    09/22/2016 12:20      39    49.3      0.00        76.6      77.9      62.7       4       8     102      66    1011    0.00
    09/22/2016 12:30      39    50.5      0.00        77.3      78.0      62.7       6      13     180     198    1011    0.00
    09/22/2016 12:40      38    50.9      0.00        77.5      78.8      62.7       7      13     164     160    1011    0.00
    09/22/2016 12:50      42    52.2      0.00        77.8      78.8      62.7       8      15     158     189    1011    0.00
    09/22/2016 13:00      44    52.5      0.00        77.6      78.8      62.7       7      14     162     143    1010    0.00
    09/22/2016 13:10      43    53.3      0.00        76.7      78.8      62.7       7      12     168     185    1010    0.00
    09/22/2016 13:20      42    53.2      0.00        76.8      78.8      62.7       5       9     178     205    1010    0.00
    09/22/2016 13:30      42    52.6      0.00        77.9      78.9      62.7       5       9     172     146    1010    0.00
    09/22/2016 13:40      41    52.1      0.00        77.8      79.1      62.7       5       9     209     182    1010    0.00
    09/22/2016 13:50      39    51.9      0.00        76.9      79.1      62.7       5      11     198     189    1010    0.00
    09/22/2016 14:00      29    46.7      0.00        77.5      79.1      62.7       4      10     246     247    1010    0.00
    09/22/2016 14:10      25    42.2      0.00        78.8      79.3      62.7       4      10     271     251    1010    0.00
    09/22/2016 14:20      25    40.0      0.00        78.5      79.3      62.7       5      11     261     225    1010    0.00
    09/22/2016 14:30      24    38.9      0.00        78.7      79.3      62.7       5      10     253     244    1010    0.00
    09/22/2016 14:40      23    38.3      0.00        78.7      79.3      62.7       5      11     251     254    1010    0.00
    09/22/2016 14:50      22    37.3      0.00        78.2      79.3      62.7       8      15     252     247    1010    0.00
    09/22/2016 15:00      22    37.2      0.00        78.5      79.3      62.7       7      14     252     270    1010    0.00
    09/22/2016 15:10      23    37.1      0.00        78.9      79.3      62.7       6      12     263     252    1009    0.00
    09/22/2016 15:20      22    37.6      0.00        78.9      79.3      62.7       6      13     247     251    1009    0.00
    09/22/2016 15:30      22    37.2      0.00        78.6      79.3      62.7       6      10     260     243    1009    0.00
    09/22/2016 15:40      22    36.5      0.00        78.9      79.3      62.7       5      10     248     266    1009    0.00
    09/22/2016 15:50      21    35.8      0.00        79.2      79.4      62.7       4       8     263     286    1009    0.00
    09/22/2016 16:00      19    32.9      0.00        79.3      79.6      62.7       4       7     239     182    1009    0.00
    09/22/2016 16:10      21    32.5      0.00        79.0      79.6      62.7       3      10     259     266    1009    0.00
    09/22/2016 16:20      17    31.4      0.00        79.2      79.6      62.7       3       6     215     198    1009    0.00
    09/22/2016 16:30      16    30.1      0.00        78.7      79.6      62.7       3       6     262     267    1009    0.00
    09/22/2016 16:40      10    21.3      0.00        79.1      79.6      62.7       4      17     344     325    1009    0.00
    09/22/2016 16:50      11    18.8      0.00        78.5      79.6      62.7       5      12     350     340    1009    0.00
    09/22/2016 17:00      11    18.6      0.00        77.4      79.6      62.7       7      18     346     338    1009    0.00
    09/22/2016 17:10      12    19.5      0.00        76.3      79.6      62.7       8      23     338     334    1009    0.00
    09/22/2016 17:20      12    20.2      0.00        75.2      79.6      62.7       8      23     340     345    1010    0.00
    09/22/2016 17:30      13    20.2      0.00        74.4      79.6      62.7       8      22     343       6    1010    0.00
    09/22/2016 17:40      13    19.9      0.00        73.7      79.6      62.7       7      16     335     345    1010    0.00
    09/22/2016 17:50      13    19.9      0.00        73.1      79.6      62.7       6      19     342     353    1010    0.00
    09/22/2016 18:00      13    18.9      0.00        72.5      79.6      62.7       5      16     344      38    1010    0.00
    09/22/2016 18:10      12    17.9      0.00        72.0      79.6      62.7       6      21     348     349    1010    0.00
    09/22/2016 18:20      12    16.8      0.00        71.6      79.6      62.7       7      18     349     325    1010    0.00
    09/22/2016 18:30      12    16.6      0.00        71.4      79.6      62.7       6      18     344     310    1010    0.00
    09/22/2016 18:40      13    17.4      0.00        71.0      79.6      62.7       8      20     342     331    1010    0.00
    09/22/2016 18:50      14    18.5      0.00        70.7      79.6      62.7       7      17     343      21    1010    0.00
    09/22/2016 19:00      15    19.7      0.00        70.3      79.6      62.7       8      18     347      46    1010    0.00
    09/22/2016 19:10      16    20.6      0.00        70.0      79.6      62.7       7      20     344     324    1011    0.00
    09/22/2016 19:20      17    21.6      0.00        69.5      79.6      62.7       8      20     339     354    1011    0.00
    09/22/2016 19:30      17    22.3      0.00        69.2      79.6      62.7       8      22     337     312    1010    0.00
    09/22/2016 19:40      17    22.8      0.00        69.0      79.6      62.7       8      21     331     337    1010    0.00
    09/22/2016 19:50      18    23.0      0.00        68.9      79.6      62.7       7      18     338     339    1011    0.00
    09/22/2016 20:00      19    23.9      0.00        68.8      79.6      62.7       8      20     341     336    1011    0.00
    09/22/2016 20:10      20    26.0      0.00        68.8      79.6      62.7       7      21     344     335    1011    0.00
    09/22/2016 20:20      21    26.9      0.00        68.4      79.6      62.7       6      18     348     344    1012    0.00
    09/22/2016 20:30      21    26.7      0.00        68.7      79.6      62.7       7      18     330     324    1012    0.00
    09/22/2016 20:40      21    26.9      0.00        68.5      79.6      62.7       4      12     289     284    1012    0.00
    09/22/2016 20:50      21    26.1      0.00        68.5      79.6      62.7       5      15     287     262    1013    0.00
    09/22/2016 21:00      21    27.3      0.00        68.6      79.6      62.7       8      16     268     283    1013    0.00
    09/22/2016 21:10      23    25.9      0.00        68.6      79.6      62.7       7      22     267     240    1013    0.00
    09/22/2016 21:20      24    29.1      0.00        67.9      79.6      62.7       7      16     247     256    1013    0.00
    09/22/2016 21:30      24    29.4      0.00        67.4      79.6      62.7       7      15     244     244    1013    0.00
    09/22/2016 21:40      23    28.7      0.00        67.5      79.6      62.7       7      17     263     254    1013    0.00
    09/22/2016 21:50      23    28.5      0.00        67.4      79.6      62.7       7      19     294     248    1012    0.00
    09/22/2016 22:00      24    28.6      0.00        67.2      79.6      62.7       6      14     274     336    1012    0.00
    09/22/2016 22:10      24    28.9      0.00        67.0      79.6      62.7       4      13     233     235    1012    0.00
    09/22/2016 22:20      25    29.9      0.00        66.3      79.6      62.7       6      14     203     188    1012    0.00
    09/22/2016 22:30      25    29.8      0.00        66.3      79.6      62.7       8      14     182     221    1012    0.00
    09/22/2016 22:40      24    29.5      0.00        66.1      79.6      62.7      10      14     174     164    1012    0.00
    09/22/2016 22:50      22    28.0      0.00        66.5      79.6      62.7       8      17     176     178    1012    0.00
    09/22/2016 23:00      22    25.5      0.00        67.4      79.6      62.7       6      17      50     178    1012    0.00
    09/22/2016 23:10      22    26.6      0.00        67.1      79.6      62.7       4      11      81     137    1012    0.00
    09/22/2016 23:20      21    25.8      0.00        67.3      79.6      62.7       7      16     355      21    1012    0.00
    09/22/2016 23:30      21    25.1      0.00        67.7      79.6      62.7       4      14      14      86    1012    0.00
    09/22/2016 23:40      23    27.6      0.00        67.1      79.6      62.7       4      13     324     328    1012    0.00
    09/22/2016 23:50      23    27.9      0.00        66.7      79.6      62.7       5      14     329     313    1012    0.00
    09/23/2016 00:00      24    28.6      0.00        66.6      79.6      62.7       6      23     330     337    1012    0.00
    09/23/2016 00:10      22    27.6      0.00        66.8      67.0      66.6       7      15     318     272    1011    0.00
    09/23/2016 00:20      21    27.2      0.00        66.8      67.2      66.5       7      24     325     304    1011    0.00
    09/23/2016 00:30      22    26.6      0.00        67.1      67.4      66.5       5      17     324     343    1012    0.00
    09/23/2016 00:40      22    27.0      0.00        66.7      67.4      66.4       2       8     290     250    1012    0.00
    09/23/2016 00:50      22    26.4      0.00        66.8      67.4      66.4       5      12     352     339    1012    0.00
    09/23/2016 01:00      24    27.5      0.00        66.8      67.4      66.2       4      17      11     339    1012    0.00
    09/23/2016 01:10      24    28.2      0.00        66.2      67.4      66.0       2      10      42     338    1012    0.00
    09/23/2016 01:20      26    29.3      0.00        65.8      67.4      65.7       4      14      38      68    1012    0.00
    09/23/2016 01:30      26    29.8      0.00        65.5      67.4      65.1       3       9      15     351    1012    0.00
    09/23/2016 01:40      27    29.8      0.00        65.1      67.4      64.9       3       8      11       8    1013    0.00
    09/23/2016 01:50      29    31.1      0.00        65.1      67.4      64.9       4      14     355     339    1012    0.00
    09/23/2016 02:00      28    31.6      0.00        65.2      67.4      64.9       5      13     350     176    1012    0.00
    09/23/2016 02:10      28    31.5      0.00        65.3      67.4      64.9       4      15      21     341    1012    0.00
    09/23/2016 02:20      29    31.2      0.00        64.7      67.4      64.3       2      10      10       6    1012    0.00
    09/23/2016 02:30      29    31.0      0.00        64.5      67.4      64.2       3       9     350     335    1012    0.00
    09/23/2016 02:40      43    34.1      0.00        64.0      67.4      63.0       2       7      87      89    1012    0.00
    09/23/2016 02:50      44    41.8      0.00        62.0      67.4      61.3       3       6      74      56    1013    0.00
    09/23/2016 03:00      41    34.0      0.00        61.7      67.4      61.2       3       6      57      46    1013    0.00
    09/23/2016 03:10      65    44.0      0.00        61.3      67.4      60.6       4       9      76      69    1013    0.00
    09/23/2016 03:20      69    49.4      0.00        60.3      67.4      60.1       4       8      83      77    1013    0.00
    09/23/2016 03:30      72    50.4      0.00        59.9      67.4      59.5       2       6      58      86    1013    0.00
    09/23/2016 03:40      69    49.9      0.00        59.6      67.4      59.4       3       7      64      74    1013    0.00
    09/23/2016 03:50      64    48.5      0.00        59.7      67.4      59.4       4       7      68     101    1013    0.00
    09/23/2016 04:00      70    49.6      0.00        60.0      67.4      59.4       4       6      66      49    1013    0.00
    09/23/2016 04:10      72    50.0      0.00        59.4      67.4      59.1       2       5      76      47    1013    0.00
    09/23/2016 04:20      73    50.4      0.00        59.1      67.4      58.9       3       6      71      52    1013    0.00
    09/23/2016 04:30      74    50.5      0.00        58.9      67.4      58.6       2       6      70      97    1013    0.00
    09/23/2016 04:40      74    50.4      0.00        58.7      67.4      58.5       3       7      65      89    1013    0.00
    09/23/2016 04:50      74    50.4      0.00        58.6      67.4      58.3       3       6      61      72    1013    0.00
    09/23/2016 05:00      74    50.3      0.00        58.7      67.4      58.3       2       4      73      77    1013    0.00
    09/23/2016 05:10      74    50.1      0.00        58.6      67.4      58.3       2       5      64      68    1014    0.00
    09/23/2016 05:20      74    49.9      0.00        58.3      67.4      58.0       0       4      42      75    1014    0.00
    09/23/2016 05:30      73    49.8      0.00        58.2      67.4      58.0       1       4      46      60    1014    0.00
    09/23/2016 05:40      74    49.5      0.00        57.9      67.4      57.7       0       1     353     348    1014    0.00
    09/23/2016 05:50      74    49.5      0.00        57.8      67.4      57.5       0       2     340     346    1014    0.00
    09/23/2016 06:00      70    49.1      0.00        57.9      67.4      57.5       0       5     345     354    1014    0.00
    09/23/2016 06:10      65    47.1      0.00        58.3      67.4      57.5       0       3      20      39    1014    0.00
    09/23/2016 06:20      64    46.7      0.00        58.6      67.4      57.5       0       3      13     334    1014    0.00
    09/23/2016 06:30      60    46.1      0.00        58.9      67.4      57.5       1       3      55      86    1014    0.00
    09/23/2016 06:40      57    45.8      0.00        60.3      67.4      57.5       0       3      84      91    1014    0.00
    09/23/2016 06:50      53    45.4      0.00        61.8      67.4      57.5       0       2     145     165    1015    0.00
    09/23/2016 07:00      34    41.0      0.00        62.2      67.4      57.5       0       3     212     277    1015    0.00
    09/23/2016 07:10      26    30.1      0.00        64.6      67.4      57.5       2       6     315     283    1015    0.00
    09/23/2016 07:20      23    28.9      0.00        66.4      67.4      57.5       2       7     310     300    1015    0.00
    09/23/2016 07:30      22    28.8      0.00        67.9      68.6      57.5       2       8     302     343    1014    0.00
    09/23/2016 07:40      23    28.5      0.00        68.9      69.4      57.5       1       4     273     286    1014    0.00
    09/23/2016 07:50      23    29.4      0.00        69.3      69.7      57.5       3       5     255     206    1014    0.00
    09/23/2016 08:00      21    27.9      0.00        69.7      70.1      57.5       2       7     276     336    1014    0.00
    09/23/2016 08:10      21    27.9      0.00        70.4      71.1      57.5       3       7     287      11    1014    0.00
    09/23/2016 08:20      18    27.6      0.00        71.4      72.3      57.5       2       6     294     320    1015    0.00
    09/23/2016 08:30      17    26.0      0.00        72.7      73.4      57.5       3       8     332     327    1015    0.00
    09/23/2016 08:40      17    25.7      0.00        73.3      73.9      57.5       4      14     340      -0    1015    0.00
    09/23/2016 08:50      17    25.9      0.00        73.4      74.2      57.5       4      12     342     341    1015    0.00
    09/23/2016 09:00      16    25.8      0.00        74.3      74.6      57.5       5      13     358     329    1015    0.00
    09/23/2016 09:10      16    26.0      0.00        75.1      75.5      57.5       4      17       8     344    1015    0.00
    09/23/2016 09:20      16    25.8      0.00        75.3      75.8      57.5       5      15     353     317    1015    0.00
    09/23/2016 09:30      15    25.7      0.00        76.1      76.5      57.5       4      13     357     325    1015    0.00
    09/23/2016 09:40      15    25.7      0.00        76.8      77.6      57.5       4      11       2     336    1015    0.00
    09/23/2016 09:50      15    25.4      0.00        76.9      77.6      57.5       5      14     351       2    1015    0.00
    09/23/2016 10:00      14    25.9      0.00        77.7      78.2      57.5       4      10     356     350    1015    0.00
    09/23/2016 10:10      13    24.8      0.00        78.2      78.7      57.5       5      17     336       0    1015    0.00
    09/23/2016 10:20      13    24.0      0.00        77.8      78.7      57.5       7      15     348     346    1015    0.00
    09/23/2016 10:30      13    24.0      0.00        78.4      79.1      57.5       6      18     356     328    1015    0.00
    09/23/2016 10:40      13    24.2      0.00        79.3      79.8      57.5       5      14     349     351    1015    0.00
    09/23/2016 10:50      12    24.3      0.00        79.7      80.4      57.5       4      12     340     322    1015    0.00
    09/23/2016 11:00      13    23.8      0.00        80.1      80.4      57.5       5      13     357     332    1015    0.00
    09/23/2016 11:10      13    24.6      0.00        80.3      80.7      57.5       4      10       6      27    1015    0.00
    09/23/2016 11:20      14    24.3      0.00        80.0      80.8      57.5       4      12     359      58    1015    0.00
    09/23/2016 11:30      12    26.8      0.00        80.1      80.9      57.5       5      13     307     336    1014    0.00
    09/23/2016 11:40      14    24.7      0.00        81.4      82.0      57.5       4      12     332       2    1014    0.00
    09/23/2016 11:50      14    26.2      0.00        82.0      82.5      57.5       4      14     348     331    1014    0.00
    09/23/2016 12:00      14    27.1      0.00        80.8      82.5      57.5       5      12     321     350    1014    0.00
    09/23/2016 12:10      14    25.1      0.00        81.9      82.7      57.5       5      16     336     345    1014    0.00
    09/23/2016 12:20      12    27.3      0.00        82.8      83.4      57.5       4      12     328     344    1014    0.00
    09/23/2016 12:30      11    23.9      0.00        83.6      84.0      57.5       4      13      16      28    1014    0.00
    09/23/2016 12:40      12    24.5      0.00        83.7      84.2      57.5       6      12     345     342    1013    0.00
    09/23/2016 12:50      11    25.6      0.00        83.9      84.4      57.5       4      13     328     335    1013    0.00
    09/23/2016 13:00      13    25.7      0.00        84.3      84.9      57.5       4      12       0     343    1013    0.00
    09/23/2016 13:10      12    26.3      0.00        84.7      85.0      57.5       4      13     329     347    1013    0.00
    09/23/2016 13:20      12    24.6      0.00        84.6      85.0      57.5       5      12     340     338    1013    0.00
    09/23/2016 13:30      11    26.0      0.00        84.2      85.0      57.5       6      14     316     348    1012    0.00
    09/23/2016 13:40      10    23.4      0.00        85.4      86.4      57.5       3      11     330     310    1012    0.00
    09/23/2016 13:50       9    21.9      0.00        86.6      86.9      57.5       5      13     346     322    1012    0.00
    09/23/2016 14:00      12    23.4      0.00        85.8      86.9      57.5       4      15     336     322    1012    0.00
    09/23/2016 14:10       8    21.5      0.00        85.7      86.9      57.5       6      13     352     334    1012    0.00
    09/23/2016 14:20       8    19.1      0.00        86.0      86.9      57.5       5      12       2     346    1012    0.00
    09/23/2016 14:30       8    18.1      0.00        86.0      86.9      57.5       7      16     356      22    1012    0.00
    09/23/2016 14:40       8    18.2      0.00        86.0      86.9      57.5       5      12     349      52    1012    0.00
    09/23/2016 14:50       8    17.7      0.00        86.1      86.9      57.5       7      15     356     351    1012    0.00
    09/23/2016 15:00       8    17.6      0.00        86.0      86.9      57.5       6      16     348     352    1012    0.00
    09/23/2016 15:10       8    17.8      0.00        85.8      86.9      57.5       6      17     347       3    1012    0.00
    09/23/2016 15:20      17    18.8      0.00        86.4      86.9      57.5       5      13      14     347    1012    0.00
    09/23/2016 15:30      28    43.1      0.00        83.1      86.9      57.5       4      11      86      87    1012    0.00
    09/23/2016 15:40      32    45.6      0.00        80.1      86.9      57.5       5      12     102     158    1012    0.00
    09/23/2016 15:50      34    47.2      0.00        79.5      86.9      57.5       4       9     103     119    1012    0.00
    09/23/2016 16:00      36    48.2      0.00        78.2      86.9      57.5       4      10     112      93    1013    0.00
    09/23/2016 16:10      36    48.1      0.00        76.9      86.9      57.5       4       8     113     146    1013    0.00
    09/23/2016 16:20      37    48.3      0.00        76.6      86.9      57.5       4      10     104      88    1013    0.00
    09/23/2016 16:30      37    47.7      0.00        76.1      86.9      57.5       3       7     110      96    1013    0.00
    09/23/2016 16:40      38    48.0      0.00        75.5      86.9      57.5       3       7     103      75    1013    0.00
    09/23/2016 16:50      39    48.0      0.00        75.6      86.9      57.5       3       6      84      63    1013    0.00
    09/23/2016 17:00      38    49.2      0.00        75.7      86.9      57.5       3       6     105      60    1013    0.00
    09/23/2016 17:10      36    47.2      0.00        75.4      86.9      57.5       3       6      84      64    1013    0.00
    09/23/2016 17:20      38    47.4      0.00        75.3      86.9      57.5       1       4      86      88    1013    0.00
    09/23/2016 17:30      36    46.5      0.00        75.1      86.9      57.5       2       5     109      95    1013    0.00
    09/23/2016 17:40      37    46.4      0.00        74.7      86.9      57.5       2       6      96      74    1013    0.00
    09/23/2016 17:50      39    47.1      0.00        74.0      86.9      57.5       0       3      84     101    1013    0.00
    09/23/2016 18:00      41    47.8      0.00        73.4      86.9      57.5       1       4      88      64    1013    0.00
    09/23/2016 18:10      42    48.1      0.00        72.8      86.9      57.5       1       5     124     131    1013    0.00
    09/23/2016 18:20      42    47.9      0.00        72.4      86.9      57.5       0       3      73      73    1013    0.00
    09/23/2016 18:30      42    47.9      0.00        72.3      86.9      57.5       0       4      73      73    1013    0.00
    09/23/2016 18:40      44    48.0      0.00        71.3      86.9      57.5       0       0       0     342    1013    0.00
    09/23/2016 18:50      44    47.6      0.00        70.3      86.9      57.5       0       0       0     156    1013    0.00
    09/23/2016 19:00      41    46.4      0.00        70.0      86.9      57.5       0       0       0     277    1013    0.00
    09/23/2016 19:10      37    43.8      0.00        69.6      86.9      57.5       0       4     321     352    1013    0.00
    09/23/2016 19:20      20    34.0      0.00        71.0      86.9      57.5       2       9     335     327    1013    0.00
    09/23/2016 19:30      17    27.2      0.00        73.8      86.9      57.5       3       7     349       8    1013    0.00
    09/23/2016 19:40      17    26.7      0.00        74.4      86.9      57.5       4      10     340     265    1013    0.00
    09/23/2016 19:50      16    26.3      0.00        74.6      86.9      57.5       5      12     341     325    1013    0.00
    09/23/2016 20:00      17    26.2      0.00        74.4      86.9      57.5       3       9     342     338    1013    0.00
    09/23/2016 20:10      16    25.8      0.00        74.0      86.9      57.5       3      12     343     334    1014    0.00
    09/23/2016 20:20      16    25.4      0.00        74.3      86.9      57.5       2       6     340     343    1014    0.00
    09/23/2016 20:30      18    25.4      0.00        73.9      86.9      57.5       1       6     332       0    1014    0.00
    09/23/2016 20:40      16    25.1      0.00        73.7      86.9      57.5       2       9     338     326    1014    0.00
    09/23/2016 20:50      16    25.2      0.00        74.0      86.9      57.5       3       9     340     353    1014    0.00
    09/23/2016 21:00      16    25.0      0.00        74.1      86.9      57.5       3      11     329     313    1014    0.00
    09/23/2016 21:10      16    24.9      0.00        74.4      86.9      57.5       4      10     332     335    1014    0.00
    09/23/2016 21:20      16    24.8      0.00        74.5      86.9      57.5       4      10     332     353    1014    0.00
    09/23/2016 21:30      16    24.8      0.00        74.4      86.9      57.5       4      11     330     333    1014    0.00
    09/23/2016 21:40      16    24.9      0.00        74.4      86.9      57.5       4      13     337     329    1014    0.00
    09/23/2016 21:50      16    24.9      0.00        74.4      86.9      57.5       3      10     326     324    1014    0.00
    09/23/2016 22:00      17    25.4      0.00        73.4      86.9      57.5       1       5     307     311    1014    0.00
    09/23/2016 22:10      17    24.9      0.00        72.8      86.9      57.5       2       6     327     328    1014    0.00
    09/23/2016 22:20      16    24.8      0.00        73.0      86.9      57.5       2       9     327     340    1014    0.00
    09/23/2016 22:30      17    24.7      0.00        73.2      86.9      57.5       3       8     319     347    1014    0.00
    09/23/2016 22:40      16    24.4      0.00        72.6      86.9      57.5       2       6     321     320    1014    0.00
    09/23/2016 22:50      16    24.1      0.00        73.4      86.9      57.5       4      11     310     302    1014    0.00
    09/23/2016 23:00      16    23.9      0.00        73.5      86.9      57.5       4       9     310     321    1014    0.00
    09/23/2016 23:10      15    23.5      0.00        73.4      86.9      57.5       2       7     322     339    1014    0.00
    09/23/2016 23:20      22    24.0      0.00        73.2      86.9      57.5       1       5     310     300    1014    0.00
    09/23/2016 23:30      29    32.6      0.00        70.7      86.9      57.5       2       6     221     277    1014    0.00
    09/23/2016 23:40      31    35.2      0.00        68.0      86.9      57.5       0       2     225     219    1014    0.00
    09/23/2016 23:50      31    35.0      0.00        66.5      86.9      57.5       0       2     329     327    1014    0.00
    09/24/2016 00:00      31    34.9      0.00        66.0      86.9      57.5       0       1     325     325    1014    0.00
    09/24/2016 00:10      33    34.6      0.00        65.3      65.8      64.8       0       0       0     302    1014    0.00
    09/24/2016 00:20      33    35.0      0.00        64.4      65.8      64.0       0       1     344     345    1014    0.00
    09/24/2016 00:30      35    35.0      0.00        63.8      65.8      63.3       0       2     330     304    1014    0.00
    09/24/2016 00:40      36    34.9      0.00        63.3      65.8      63.0       0       2     282     280    1014    0.00
    09/24/2016 00:50      34    35.0      0.00        63.0      65.8      62.6       0       0       0     224    1014    0.00
    09/24/2016 01:00      33    34.7      0.00        64.1      65.8      62.6       0       2     252     287    1014    0.00
    09/24/2016 01:10      33    34.0      0.00        63.5      65.8      62.6       0       2     250     251    1014    0.00
    09/24/2016 01:20      33    33.0      0.00        62.9      65.8      62.5       0       0     259     243    1014    0.00
    09/24/2016 01:30      33    33.5      0.00        62.7      65.8      62.4       0       2     259     336    1014    0.00
    09/24/2016 01:40      30    32.3      0.00        63.4      65.8      62.4       0       2     192     192    1014    0.00
    09/24/2016 01:50      30    31.9      0.00        64.0      65.8      62.4       0       2     190     210    1014    0.00
    09/24/2016 02:00      31    32.0      0.00        63.8      65.8      62.4       0       0     332     330    1014    0.00
    09/24/2016 02:10      34    32.8      0.00        62.6      65.8      62.0       0       0       0     290    1014    0.00
    09/24/2016 02:20      36    33.6      0.00        61.6      65.8      60.9       0       0       0     295    1014    0.00
    09/24/2016 02:30      37    34.7      0.00        61.0      65.8      60.7       0       2     337     334    1014    0.00
    09/24/2016 02:40      34    33.9      0.00        61.7      65.8      60.7       0       5     338     332    1014    0.00
    09/24/2016 02:50      31    32.4      0.00        62.5      65.8      60.7       0       3     301     305    1014    0.00
    09/24/2016 03:00      16    25.3      0.00        66.0      70.8      60.7       3      10     325     347    1014    0.00
    09/24/2016 03:10      17    22.2      0.00        71.4      72.0      60.7       3       6     295     293    1014    0.00
    09/24/2016 03:20      19    24.2      0.00        68.7      72.0      60.7       1       4     274     217    1014    0.00
    09/24/2016 03:30      22    25.0      0.00        67.6      72.0      60.7       2       5     265     245    1014    0.00
    09/24/2016 03:40      26    29.0      0.00        65.9      72.0      60.7       0       3     223     240    1014    0.00
    09/24/2016 03:50      26    29.0      0.00        64.0      72.0      60.7       0       2     192     229    1014    0.00
    09/24/2016 04:00      27    28.7      0.00        63.1      72.0      60.7       0       0       0     232    1014    0.00
    09/24/2016 04:10      29    29.6      0.00        62.9      72.0      60.7       0       2     190      93    1014    0.00
    09/24/2016 04:20      32    30.7      0.00        62.4      72.0      60.7       0       2      84      80    1014    0.00
    09/24/2016 04:30      32    30.9      0.00        61.7      72.0      60.7       0       4      86      42    1014    0.00
    09/24/2016 04:40      32    31.8      0.00        60.8      72.0      60.5       0       2     102      88    1014    0.00
    09/24/2016 04:50      36    32.2      0.00        60.5      72.0      59.9       0       2      93      92    1014    0.00
    09/24/2016 05:00      33    31.9      0.00        59.3      72.0      58.9       0       1     123      84    1014    0.00
    09/24/2016 05:10      34    30.5      0.00        60.1      72.0      58.9       0       1     304     317    1015    0.00
    09/24/2016 05:20      32    30.5      0.00        60.1      72.0      58.9       0       2     192     192    1015    0.00
    09/24/2016 05:30      31    30.0      0.00        60.3      72.0      58.9       0       1     292     286    1015    0.00
    09/24/2016 05:40      32    30.1      0.00        60.5      72.0      58.9       0       2     257     233    1015    0.00
    09/24/2016 05:50      32    30.0      0.00        60.1      72.0      58.9       0       2     327     323    1015    0.00
    09/24/2016 06:00      33    30.6      0.00        60.0      72.0      58.9       0       0       0      66    1015    0.00
    09/24/2016 06:10      32    30.2      0.00        59.8      72.0      58.9       0       0       0     289    1015    0.00
    09/24/2016 06:20      30    29.8      0.00        60.0      72.0      58.9       0       5      34       0    1015    0.00
    09/24/2016 06:30      28    28.8      0.00        63.0      72.0      58.9       0       4      28      19    1015    0.00
    09/24/2016 06:40      32    32.4      0.00        64.0      72.0      58.9       0       3     215     218    1015    0.00
    09/24/2016 06:50      30    32.4      0.00        64.1      72.0      58.9       1       4     247     262    1015    0.00
    09/24/2016 07:00      29    32.3      0.00        64.8      72.0      58.9       0       2     258     258    1015    0.00
    09/24/2016 07:10      28    32.2      0.00        65.8      72.0      58.9       0       2     249     248    1015    0.00
    09/24/2016 07:20      28    32.8      0.00        66.9      72.0      58.9       0       2     190     195    1015    0.00
    09/24/2016 07:30      27    32.8      0.00        67.9      72.0      58.9       0       2     217     181    1016    0.00
    09/24/2016 07:40      26    33.4      0.00        69.0      72.0      58.9       0       3     184     180    1015    0.00
    09/24/2016 07:50      27    34.0      0.00        70.2      72.0      58.9       0       2     205     209    1015    0.00
    09/24/2016 08:00      25    34.5      0.00        71.6      72.4      58.9       1       3     189     186    1016    0.00
    09/24/2016 08:10      23    33.6      0.00        72.9      73.4      58.9       1       2     185     169    1016    0.00
    09/24/2016 08:20      21    33.0      0.00        74.8      75.8      58.9       0       2     151     146    1016    0.00
    09/24/2016 08:30      21    35.0      0.00        76.6      77.3      58.9       1       3     175     168    1016    0.00
    09/24/2016 08:40      23    35.2      0.00        77.0      77.3      58.9       2       4     194     175    1016    0.00
    09/24/2016 08:50      19    34.8      0.00        78.2      80.0      58.9       1       4     173     192    1016    0.00
    09/24/2016 09:00      17    32.7      0.00        81.9      83.8      58.9       2       4     158     175    1016    0.00
    09/24/2016 09:10      16    33.4      0.00        83.6      84.4      58.9       4       6     158     161    1016    0.00
    09/24/2016 09:20      14    30.9      0.00        83.9      84.7      58.9       2       7     137     138    1016    0.00
    09/24/2016 09:30      13    30.4      0.00        85.4      86.0      58.9       4       7     150     146    1016    0.00
    09/24/2016 09:40      13    29.6      0.00        85.9      86.4      58.9       4       8     153     155    1016    0.00
    09/24/2016 09:50      13    29.0      0.00        85.3      86.4      58.9       4       9     161     163    1016    0.00
    09/24/2016 10:00      12    29.1      0.00        86.1      87.7      58.9       3       7     157     123    1016    0.00
    09/24/2016 10:10      12    28.3      0.00        86.7      87.7      58.9       3       6     143      94    1015    0.00
    09/24/2016 10:20      13    28.2      0.00        86.0      87.7      58.9       3       7     141     154    1015    0.00
    09/24/2016 10:30      12    29.7      0.00        86.9      88.0      58.9       3       6     153     143    1015    0.00
    09/24/2016 10:40      12    30.0      0.00        88.7      89.4      58.9       3       6     157     148    1015    0.00
    09/24/2016 10:50      12    29.5      0.00        88.1      89.4      58.9       3       6     150      92    1015    0.00
    09/24/2016 11:00      12    29.6      0.00        88.7      90.1      58.9       3       6     156     150    1015    0.00
    09/24/2016 11:10      11    30.6      0.00        90.1      90.6      58.9       4       7     171     164    1015    0.00
    09/24/2016 11:20      11    28.4      0.00        89.1      90.6      58.9       3       6     165     190    1015    0.00
    09/24/2016 11:30      11    28.3      0.00        90.4      91.0      58.9       3       7     121     153    1015    0.00
    09/24/2016 11:40      10    28.6      0.00        91.4      92.1      58.9       4       9     146     135    1015    0.00
    09/24/2016 11:50      10    27.0      0.00        91.9      93.0      58.9       2       6     115     153    1015    0.00
    09/24/2016 12:00      10    28.2      0.00        93.0      93.7      58.9       3       8     145     145    1015    0.00
    09/24/2016 12:10      10    29.1      0.00        94.2      94.9      58.9       4      10     159     157    1014    0.00
    09/24/2016 12:20      10    27.9      0.00        94.4      94.9      58.9       2       7     149     141    1014    0.00
    09/24/2016 12:30       9    27.8      0.00        93.6      94.9      58.9       4      10     180     191    1014    0.00
    09/24/2016 12:40      10    25.9      0.00        92.6      94.9      58.9       2       7     295     218    1014    0.00
    09/24/2016 12:50      10    27.7      0.00        94.0      94.9      58.9       3       7     165     147    1014    0.00
    09/24/2016 13:00       9    28.2      0.00        93.3      94.9      58.9       5      10     159     182    1014    0.00
    09/24/2016 13:10       9    28.4      0.00        93.8      94.9      58.9       3       6     168     164    1014    0.00
    09/24/2016 13:20      10    27.3      0.00        94.2      94.9      58.9       3       9     160     142    1013    0.00
    09/24/2016 13:30       9    28.5      0.00        94.1      94.9      58.9       5      10     179     161    1013    0.00
    09/24/2016 13:40       9    27.9      0.00        95.5      96.1      58.9       4       8     149     170    1013    0.00
    09/24/2016 13:50       8    26.2      0.00        94.5      96.1      58.9       2       5      29     313    1013    0.00
    09/24/2016 14:00       9    26.9      0.00        94.0      96.1      58.9       4       7     195     181    1013    0.00
    09/24/2016 14:10       8    27.5      0.00        95.4      96.8      58.9       2       6     321      68    1013    0.00
    09/24/2016 14:20       8    26.2      0.00        96.2      96.8      58.9       4      11     324     339    1013    0.00
    09/24/2016 14:30       9    26.5      0.00        96.1      96.8      58.9       4       9     307     288    1013    0.00
    09/24/2016 14:40       8    25.6      0.00        95.9      96.8      58.9       4       9     313     290    1013    0.00
    09/24/2016 14:50       8    25.0      0.00        96.5      96.9      58.9       4       9     297     337    1013    0.00
    09/24/2016 15:00      10    24.5      0.00        96.0      96.9      58.9       6      11     289     238    1013    0.00
    09/24/2016 15:10      11    30.7      0.00        94.1      96.9      58.9       5      11     209     156    1013    0.00
    09/24/2016 15:20      10    30.0      0.00        94.1      96.9      58.9       5      10     267     238    1013    0.00
    09/24/2016 15:30      11    30.7      0.00        93.5      96.9      58.9       4       9     266     254    1013    0.00
    09/24/2016 15:40      12    30.9      0.00        91.6      96.9      58.9       6      11     205     177    1013    0.00
    09/24/2016 15:50      11    30.4      0.00        90.1      96.9      58.9       6      12     210     186    1013    0.00
    09/24/2016 16:00      11    30.1      0.00        90.0      96.9      58.9       4       9     218     231    1013    0.00
    09/24/2016 16:10      11    29.2      0.00        89.9      96.9      58.9       5      12     236     250    1013    0.00
    09/24/2016 16:20      12    29.0      0.00        88.9      96.9      58.9       6      13     248     256    1013    0.00
    09/24/2016 16:30      12    29.1      0.00        88.2      96.9      58.9       7      14     252     249    1013    0.00
    09/24/2016 16:40      12    29.2      0.00        87.7      96.9      58.9       5      12     250     252    1013    0.00
    09/24/2016 16:50      13    29.6      0.00        87.4      96.9      58.9       5       8     245     241    1013    0.00
    09/24/2016 17:00      12    29.1      0.00        87.0      96.9      58.9       4      10     237     263    1013    0.00
    09/24/2016 17:10      13    29.1      0.00        86.8      96.9      58.9       3       6     218     219    1013    0.00
    09/24/2016 17:20      13    29.7      0.00        85.6      96.9      58.9       2       6     217     185    1013    0.00
    09/24/2016 17:30      13    29.1      0.00        85.5      96.9      58.9       3       8     247     254    1013    0.00
    09/24/2016 17:40      14    29.8      0.00        84.8      96.9      58.9       2       6     229     251    1013    0.00
    09/24/2016 17:50      15    30.2      0.00        83.3      96.9      58.9       3       8     237     250    1013    0.00
    09/24/2016 18:00      16    31.0      0.00        82.7      96.9      58.9       3       6     241     261    1013    0.00
    09/24/2016 18:10      17    31.6      0.00        81.7      96.9      58.9       2       4     224     236    1013    0.00
    09/24/2016 18:20      16    31.7      0.00        80.7      96.9      58.9       3       6     202     211    1013    0.00
    09/24/2016 18:30      16    29.8      0.00        80.3      96.9      58.9       2       4     194     176    1013    0.00
    09/24/2016 18:40      16    29.2      0.00        79.3      96.9      58.9       2       5     209     183    1013    0.00
    09/24/2016 18:50      17    29.8      0.00        79.1      96.9      58.9       2       5     240     276    1013    0.00
    09/24/2016 19:00      18    30.6      0.00        79.3      96.9      58.9       2       5     272     253    1014    0.00
    09/24/2016 19:10      22    33.7      0.00        78.8      96.9      58.9       2       5     275     260    1014    0.00
    09/24/2016 19:20      23    36.2      0.00        77.6      96.9      58.9       0       2     285     279    1014    0.00
    09/24/2016 19:30      25    37.6      0.00        76.4      96.9      58.9       0       2     292     288    1014    0.00
    09/24/2016 19:40      27    38.6      0.00        75.0      96.9      58.9       0       1     293     275    1014    0.00
    09/24/2016 19:50      28    37.9      0.00        74.5      96.9      58.9       0       1     327     330    1014    0.00